Time;durP1;ratioP1;P1;durP2;ratioP2;P2;SDS_P1;SDS_P2;PMS_P1;PMS_P2;Temp;Humidity;BMP_temperature;BMP_pressure;BME280_temperature;BME280_humidity;BME280_pressure;Samples;Min_cycle;Max_cycle;Signal;HPM_P1;HPM_P2
2022/04/01 00:01:58;;;;;;;29.83;16.67;;;;;;;1.60;100.00;97642.59;4935033;28;20066;-53
2022/04/01 00:04:23;;;;;;;32.42;17.70;;;;;;;1.56;100.00;97640.63;4939221;28;20079;-52
2022/04/01 00:06:49;;;;;;;34.83;18.83;;;;;;;1.64;100.00;97637.66;4933993;28;20099;-52
2022/04/01 00:09:14;;;;;;;31.13;17.88;;;;;;;1.69;100.00;97646.50;4933278;29;20035;-51
2022/04/01 00:11:39;;;;;;;33.88;18.65;;;;;;;1.78;100.00;97644.38;4948036;28;20074;-51
2022/04/01 00:14:05;;;;;;;32.30;18.25;;;;;;;1.73;100.00;97633.69;4935069;28;20052;-49
2022/04/01 00:16:31;;;;;;;35.85;19.08;;;;;;;1.70;100.00;97642.06;4942191;28;20047;-52
2022/04/01 00:18:57;;;;;;;33.97;17.42;;;;;;;1.84;100.00;97637.38;4932798;29;20130;-49
2022/04/01 00:21:23;;;;;;;37.20;18.33;;;;;;;1.72;100.00;97645.25;4934340;28;20063;-53
2022/04/01 00:23:48;;;;;;;36.35;20.38;;;;;;;1.87;100.00;97643.03;4933376;29;20036;-51
2022/04/01 00:26:14;;;;;;;38.95;19.13;;;;;;;1.74;100.00;97648.47;4933453;28;20092;-52
2022/04/01 00:28:39;;;;;;;36.88;18.48;;;;;;;1.62;100.00;97645.00;4937709;29;20028;-50
2022/04/01 00:31:05;;;;;;;41.20;19.92;;;;;;;1.66;100.00;97648.81;4933555;28;20451;-53
2022/04/01 00:33:31;;;;;;;40.25;19.90;;;;;;;1.60;100.00;97642.59;4933769;29;20035;-51
2022/04/01 00:35:57;;;;;;;37.28;19.98;;;;;;;1.62;100.00;97651.09;4939367;28;20070;-52
2022/04/01 00:38:23;;;;;;;42.65;20.92;;;;;;;1.71;100.00;97638.38;4930699;29;20277;-50
2022/04/01 00:40:51;;;;;;;44.65;21.05;;;;;;;1.74;100.00;97640.56;4944680;28;20042;-53
2022/04/01 00:43:16;;;;;;;44.85;21.77;;;;;;;1.75;100.00;97636.91;4965171;28;20039;-53
2022/04/01 00:45:41;;;;;;;42.13;21.27;;;;;;;1.59;100.00;97637.53;4961925;28;20046;-53
2022/04/01 00:48:07;;;;;;;44.53;22.00;;;;;;;1.71;100.00;97633.09;4963067;28;20089;-53
2022/04/01 00:50:33;;;;;;;46.33;22.67;;;;;;;1.67;100.00;97640.66;4962336;28;20488;-52
2022/04/01 00:52:59;;;;;;;43.78;22.55;;;;;;;1.61;100.00;97638.09;4963001;28;20481;-50
2022/04/01 00:55:25;;;;;;;47.63;22.38;;;;;;;1.65;100.00;97644.56;4941980;28;20583;-52
2022/04/01 00:57:53;;;;;;;42.47;21.10;;;;;;;1.62;100.00;97645.00;4963363;28;20058;-53
2022/04/01 01:00:19;;;;;;;44.38;22.40;;;;;;;1.61;100.00;97643.38;4968452;28;20034;-51
2022/04/01 01:02:45;;;;;;;42.65;22.23;;;;;;;1.53;100.00;97646.34;4967118;28;20030;-52
2022/04/01 01:05:10;;;;;;;46.92;22.77;;;;;;;1.55;100.00;97639.00;4963672;28;20034;-51
2022/04/01 01:07:39;;;;;;;46.38;23.98;;;;;;;1.63;100.00;97644.78;4964522;28;20535;-53
2022/04/01 01:10:04;;;;;;;42.63;22.92;;;;;;;1.66;100.00;97646.97;4968654;28;20039;-50
2022/04/01 01:12:31;;;;;;;41.60;22.67;;;;;;;1.60;100.00;97639.94;4969392;28;20055;-50
2022/04/01 01:14:59;;;;;;;46.17;23.20;;;;;;;1.58;100.00;97643.84;4968855;28;20026;-53
2022/04/01 01:17:24;;;;;;;42.25;22.10;;;;;;;1.56;100.00;97632.69;4945192;28;20055;-52
2022/04/01 01:19:50;;;;;;;38.13;22.13;;;;;;;1.61;100.00;97638.09;4967836;28;20034;-50
2022/04/01 01:22:16;;;;;;;45.33;22.95;;;;;;;1.60;100.00;97636.47;4967831;28;20089;-53
2022/04/01 01:24:41;;;;;;;41.05;21.63;;;;;;;1.59;100.00;97629.59;4955202;28;20030;-53
2022/04/01 01:27:08;;;;;;;45.63;22.13;;;;;;;1.47;100.00;97627.72;4960425;28;20505;-54
2022/04/01 01:29:35;;;;;;;42.35;21.88;;;;;;;1.51;100.00;97634.16;4960140;28;20031;-51
2022/04/01 01:32:02;;;;;;;41.42;22.52;;;;;;;1.54;100.00;97630.25;4965154;28;20061;-52
2022/04/01 01:34:28;;;;;;;45.35;23.98;;;;;;;1.56;100.00;97630.84;4969192;28;20477;-54
2022/04/01 01:36:54;;;;;;;43.50;23.48;;;;;;;1.62;100.00;97631.78;4957667;28;20068;-51
2022/04/01 01:39:20;;;;;;;43.53;23.90;;;;;;;1.67;100.00;97621.34;4965568;28;20030;-54
2022/04/01 01:41:45;;;;;;;47.08;25.75;;;;;;;1.69;100.00;97622.75;4959009;28;20409;-51
2022/04/01 01:44:11;;;;;;;48.47;25.45;;;;;;;1.65;100.00;97624.25;4965850;28;20047;-50
2022/04/01 01:46:37;;;;;;;46.05;24.02;;;;;;;1.61;100.00;97625.69;4967768;28;20077;-54
2022/04/01 01:49:02;;;;;;;48.85;25.95;;;;;;;1.50;100.00;97621.19;4968638;28;20493;-50
2022/04/01 01:56:56;;;;;;;54.63;26.38;;;;;;;1.67;100.00;97621.34;4962083;28;20409;-53
2022/04/01 01:59:21;;;;;;;53.58;28.63;;;;;;;1.72;100.00;97616.19;4967142;28;20038;-54
2022/04/01 02:01:47;;;;;;;52.60;27.67;;;;;;;1.64;100.00;97622.59;4963466;28;20050;-51
2022/04/01 02:04:12;;;;;;;56.63;28.92;;;;;;;1.68;100.00;97620.34;4966893;28;20031;-53
2022/04/01 02:06:38;;;;;;;52.25;27.35;;;;;;;1.61;100.00;97609.06;4957429;28;20062;-51
2022/04/01 02:09:03;;;;;;;50.88;25.88;;;;;;;1.69;100.00;97620.09;4962567;28;20492;-52
2022/04/01 02:11:29;;;;;;;57.88;29.30;;;;;;;1.74;100.00;97622.06;4959260;28;20410;-51
2022/04/01 02:13:54;;;;;;;62.65;30.33;;;;;;;1.72;100.00;97624.13;4960308;28;20026;-51
2022/04/01 02:16:21;;;;;;;56.67;29.48;;;;;;;1.77;100.00;97621.63;4951512;28;20097;-50
2022/04/01 02:18:47;;;;;;;58.22;30.23;;;;;;;1.73;100.00;97616.00;4966576;28;20038;-51
2022/04/01 02:21:15;;;;;;;64.97;28.48;;;;;;;1.73;100.00;97621.28;4963767;28;20190;-51
2022/04/01 02:23:42;;;;;;;59.35;30.38;;;;;;;1.70;100.00;97626.22;4957440;28;20038;-50
2022/04/01 02:26:08;;;;;;;54.40;27.67;;;;;;;1.69;100.00;97621.94;4961914;28;20058;-52
2022/04/01 02:28:35;;;;;;;58.47;28.58;;;;;;;1.62;100.00;97631.78;4963937;28;20047;-51
2022/04/01 02:31:00;;;;;;;60.08;29.45;;;;;;;1.65;100.00;97623.44;4960594;28;20141;-53
2022/04/01 02:33:27;;;;;;;59.38;29.48;;;;;;;1.63;100.00;97630.78;4962708;28;20046;-52
2022/04/01 02:35:54;;;;;;;59.60;30.42;;;;;;;1.64;100.00;97632.38;4961049;28;20043;-50
2022/04/01 02:38:19;;;;;;;59.78;29.65;;;;;;;1.64;100.00;97632.38;4966400;28;20031;-52
2022/04/01 02:40:44;;;;;;;57.20;28.75;;;;;;;1.63;100.00;97641.34;4967356;28;20401;-53
2022/04/01 02:43:10;;;;;;;59.72;30.02;;;;;;;1.59;100.00;97634.88;4967910;28;20043;-51
2022/04/01 02:45:35;;;;;;;57.30;28.52;;;;;;;1.56;100.00;97630.06;4960019;28;20098;-49
2022/04/01 02:48:01;;;;;;;59.88;29.77;;;;;;;1.63;100.00;97633.41;4931900;29;20504;-51
2022/04/01 02:50:26;;;;;;;62.03;28.63;;;;;;;1.72;100.00;97645.25;4940442;28;20058;-52
2022/04/01 02:52:51;;;;;;;61.90;30.40;;;;;;;1.61;100.00;97643.38;4947962;28;20036;-49
2022/04/01 02:55:17;;;;;;;61.33;28.80;;;;;;;1.68;100.00;97649.41;4938737;28;20367;-51
2022/04/01 02:57:42;;;;;;;53.83;27.98;;;;;;;1.76;100.00;97651.72;4944988;29;20458;-49
2022/04/01 03:00:09;;;;;;;58.65;28.77;;;;;;;1.66;100.00;97651.44;4942888;28;20031;-52
2022/04/01 03:02:36;;;;;;;59.28;27.35;;;;;;;1.67;100.00;97647.75;4939975;28;20047;-50
2022/04/01 03:05:03;;;;;;;54.30;27.75;;;;;;;1.75;100.00;97652.75;4947835;28;20054;-50
2022/04/01 03:07:28;;;;;;;57.20;28.85;;;;;;;1.68;100.00;97657.31;4947939;28;20032;-49
2022/04/01 03:09:54;;;;;;;54.78;29.33;;;;;;;1.63;100.00;97655.34;4939996;28;20096;-50
2022/04/01 03:12:19;;;;;;;57.92;28.88;;;;;;;1.61;100.00;97652.13;4932874;28;21685;-50
2022/04/01 03:14:45;;;;;;;60.88;28.65;;;;;;;1.64;100.00;97659.59;4947838;28;20027;-52
2022/04/01 03:17:11;;;;;;;59.13;28.83;;;;;;;1.71;100.00;97657.66;4945748;28;20035;-52
2022/04/01 03:19:39;;;;;;;55.47;28.73;;;;;;;1.67;100.00;97658.34;4943415;29;20031;-53
2022/04/01 03:22:04;;;;;;;65.35;29.52;;;;;;;1.65;100.00;97663.06;4945421;28;20608;-51
2022/04/01 03:24:30;;;;;;;59.67;28.38;;;;;;;1.69;100.00;97661.56;4943561;29;20043;-52
2022/04/01 03:26:55;;;;;;;52.67;28.08;;;;;;;1.65;100.00;97668.34;4938330;28;20526;-50
2022/04/01 03:29:21;;;;;;;53.83;27.95;;;;;;;1.56;100.00;97677.59;4947699;28;20147;-52
2022/04/01 03:31:47;;;;;;;62.47;29.05;;;;;;;1.48;100.00;97671.56;4947646;28;20565;-52
2022/04/01 03:34:13;;;;;;;57.00;26.88;;;;;;;1.54;100.00;97669.06;4940999;29;20473;-53
2022/04/01 03:36:39;;;;;;;55.63;27.02;;;;;;;1.57;100.00;97673.91;4939326;28;20036;-52
2022/04/01 03:39:04;;;;;;;58.05;28.08;;;;;;;1.60;100.00;97678.72;4947824;28;20043;-51
2022/04/01 03:41:30;;;;;;;60.42;28.88;;;;;;;1.63;100.00;97678.31;4942226;28;20047;-52
2022/04/01 03:43:55;;;;;;;53.92;26.48;;;;;;;1.66;100.00;97677.84;4937284;29;20035;-50
2022/04/01 03:46:24;;;;;;;56.47;27.90;;;;;;;1.60;100.00;97676.94;4946376;28;20177;-50
2022/04/01 03:48:55;;;;;;;51.45;26.02;;;;;;;1.55;100.00;97676.78;4942413;29;20032;-53
2022/04/01 03:51:24;;;;;;;52.85;26.15;;;;;;;1.56;100.00;97673.09;4945947;28;20043;-53
2022/04/01 03:54:04;;;;;;;48.60;25.60;;;;;;;1.62;100.00;97674.03;4947759;28;20079;-52
2022/04/01 03:56:36;;;;;;;49.05;25.77;;;;;;;1.60;100.00;97678.72;4942296;28;20039;-58
2022/04/01 03:59:05;;;;;;;50.63;25.77;;;;;;;1.63;100.00;97675.66;4947436;29;20451;-50
2022/04/01 04:01:31;;;;;;;49.75;24.30;;;;;;;1.50;99.37;97674.81;4945964;28;20482;-53
2022/04/01 04:03:57;;;;;;;48.78;26.20;;;;;;;1.65;99.22;97676.25;4948139;28;20086;-52
2022/04/01 04:06:23;;;;;;;48.85;25.40;;;;;;;1.55;99.22;97679.44;4946394;28;20074;-50
2022/04/01 04:08:50;;;;;;;45.40;24.35;;;;;;;1.50;99.24;97685.38;4941042;29;20027;-54
2022/04/01 04:11:17;;;;;;;51.83;26.50;;;;;;;1.47;99.12;97682.34;4958704;28;20126;-50
2022/04/01 04:13:45;;;;;;;48.85;25.92;;;;;;;1.51;100.00;97684.31;4926843;29;20130;-52
2022/04/01 04:16:19;;;;;;;38.60;19.83;;;;;;;1.55;98.64;97675.97;4935706;28;20035;-50
2022/04/01 04:18:52;;;;;;;46.05;24.65;;;;;;;1.49;98.23;97683.75;4938967;29;20055;-53
2022/04/01 04:21:24;;;;;;;46.58;24.58;;;;;;;1.62;98.59;97682.78;4936111;28;20051;-52
2022/04/01 04:23:54;;;;;;;53.97;26.13;;;;;;;1.47;98.50;97685.81;4951295;28;20134;-51
2022/04/01 04:26:27;;;;;;;48.63;25.90;;;;;;;1.60;98.57;97691.94;4949128;28;20051;-50
2022/04/01 04:28:56;;;;;;;48.03;25.17;;;;;;;1.50;97.83;97695.13;4934868;28;20098;-50
2022/04/01 04:31:26;;;;;;;49.08;24.58;;;;;;;1.51;99.13;97697.53;4942079;28;20050;-50
2022/04/01 04:33:51;;;;;;;53.28;24.85;;;;;;;1.58;99.06;97696.66;4939493;29;20035;-50
2022/04/01 04:36:17;;;;;;;43.60;24.95;;;;;;;1.55;98.10;97703.19;4932491;29;20055;-53
2022/04/01 04:38:45;;;;;;;43.90;24.02;;;;;;;1.50;98.27;97703.84;4932917;29;20034;-51
2022/04/01 04:41:11;;;;;;;46.65;23.55;;;;;;;1.46;98.48;97700.03;4945419;28;20473;-52
2022/04/01 04:43:40;;;;;;;50.38;25.50;;;;;;;1.42;99.04;97698.03;4941653;28;20039;-50
2022/04/01 04:46:06;;;;;;;47.80;22.55;;;;;;;1.43;99.12;97705.75;4940763;28;20055;-50
2022/04/01 04:48:36;;;;;;;53.22;26.00;;;;;;;1.39;99.51;97698.50;4950918;29;20035;-51
2022/04/01 04:51:02;;;;;;;51.13;23.85;;;;;;;1.47;99.30;97708.75;4949975;28;20043;-51
2022/04/01 04:53:30;;;;;;;48.03;25.23;;;;;;;1.54;98.95;97713.97;4946098;28;20031;-53
2022/04/01 04:55:57;;;;;;;53.95;26.45;;;;;;;1.49;98.88;97720.69;4959766;28;20059;-50
2022/04/01 04:58:23;;;;;;;53.45;25.85;;;;;;;1.48;99.64;97716.47;4945911;29;20031;-50
2022/04/01 05:00:54;;;;;;;45.85;22.20;;;;;;;1.55;99.40;97723.50;4948654;28;20109;-53
2022/04/01 05:03:46;;;;;;;52.40;25.88;;;;;;;1.43;99.27;97723.44;4943864;29;20055;-53
2022/04/01 05:06:12;;;;;;;50.08;24.30;;;;;;;1.51;99.54;97725.78;4948327;28;20051;-52
2022/04/01 05:08:56;;;;;;;61.40;30.52;;;;;;;1.49;99.04;97731.25;4922941;29;20435;-50
2022/04/01 05:11:49;;;;;;;51.97;25.10;;;;;;;1.51;99.72;97738.97;4953164;28;20788;-55
2022/04/01 05:14:51;;;;;;;45.30;23.70;;;;;;;1.45;99.11;97748.59;4953154;28;20051;-53
2022/04/01 05:17:28;;;;;;;46.92;23.33;;;;;;;1.49;98.89;97744.47;4958093;28;20050;-53
2022/04/01 05:19:58;;;;;;;43.33;22.85;;;;;;;1.47;98.94;97743.91;4944041;28;20035;-53
2022/04/01 05:22:47;;;;;;;41.97;21.70;;;;;;;1.45;97.56;97756.50;4963480;28;20090;-53
2022/04/01 05:25:17;;;;;;;39.83;21.40;;;;;;;1.45;97.31;97756.50;4962715;28;20072;-54
2022/04/01 05:27:48;;;;;;;40.70;22.05;;;;;;;1.45;97.01;97759.16;4968398;28;20069;-52
2022/04/01 05:30:16;;;;;;;39.35;20.20;;;;;;;1.46;96.94;97763.41;4966648;28;20126;-50
2022/04/01 05:33:00;;;;;;;33.70;17.63;;;;;;;1.50;95.74;97764.59;4969216;28;20023;-53
2022/04/01 05:35:30;;;;;;;33.50;18.40;;;;;;;1.48;93.42;97771.91;4964215;28;20047;-52
2022/04/01 05:37:58;;;;;;;30.17;16.77;;;;;;;1.40;92.55;97777.50;4961299;28;20398;-53
2022/04/01 05:40:23;;;;;;;25.40;14.45;;;;;;;1.34;90.97;97778.34;4962439;28;20043;-52
2022/04/01 05:42:48;;;;;;;22.10;13.35;;;;;;;1.34;91.34;97774.91;4967576;28;20039;-52
2022/04/01 05:45:15;;;;;;;28.40;16.00;;;;;;;1.36;91.74;97784.22;4960816;28;20164;-53
2022/04/01 05:47:41;;;;;;;23.42;14.57;;;;;;;1.30;91.50;97787.75;4942976;28;20090;-53
2022/04/01 05:50:07;;;;;;;24.58;14.75;;;;;;;1.41;90.93;97794.13;4948365;28;20035;-53
2022/04/01 05:52:32;;;;;;;23.63;13.00;;;;;;;1.39;90.01;97788.25;4953936;28;20144;-53
2022/04/01 05:54:58;;;;;;;19.88;11.50;;;;;;;1.39;90.39;97796.97;4952151;28;20463;-51
2022/04/01 05:57:23;;;;;;;21.75;12.13;;;;;;;1.37;88.99;97806.13;4966996;28;20043;-53
2022/04/01 05:59:48;;;;;;;34.08;17.60;;;;;;;1.34;89.37;97802.09;4956614;28;20031;-52
2022/04/01 06:02:44;;;;;;;27.10;14.07;;;;;;;1.37;89.87;97800.88;4969538;28;20038;-54
2022/04/01 06:05:26;;;;;;;19.13;11.88;;;;;;;1.35;88.83;97808.19;4960303;28;20046;-52
2022/04/01 06:08:13;;;;;;;26.23;13.65;;;;;;;1.27;88.23;97818.03;4960256;28;20018;-53
2022/04/01 06:10:59;;;;;;;20.60;11.63;;;;;;;1.25;88.89;97816.63;4965402;28;20054;-53
2022/04/01 06:13:30;;;;;;;26.95;14.32;;;;;;;1.31;89.13;97818.38;4968183;28;20026;-52
2022/04/01 06:16:16;;;;;;;27.67;13.30;;;;;;;1.25;88.93;97825.34;4962522;28;20035;-51
2022/04/01 06:19:04;;;;;;;26.13;13.63;;;;;;;1.28;88.57;97818.81;4964555;28;20039;-49
2022/04/01 06:21:29;;;;;;;15.73;10.02;;;;;;;1.29;88.07;97825.72;4964935;28;20059;-51
2022/04/01 06:24:08;;;;;;;22.10;11.43;;;;;;;1.22;87.80;97838.16;4963748;28;20045;-53
2022/04/01 06:26:38;;;;;;;21.15;12.73;;;;;;;1.15;88.04;97834.75;4968127;28;20045;-52
2022/04/01 06:29:23;;;;;;;23.77;12.80;;;;;;;1.18;88.48;97845.72;4946195;29;20035;-50
2022/04/01 06:31:57;;;;;;;21.52;12.05;;;;;;;1.20;87.47;97838.38;4964519;28;20043;-53
2022/04/01 06:34:23;;;;;;;24.33;13.95;;;;;;;1.15;87.75;97848.78;4959108;28;20118;-53
2022/04/01 06:36:53;;;;;;;30.75;13.95;;;;;;;1.25;88.12;97856.22;4966934;28;20046;-53
2022/04/01 06:39:38;;;;;;;24.25;14.00;;;;;;;1.21;86.09;97857.66;4963290;28;20090;-50
2022/04/01 06:42:04;;;;;;;28.67;15.48;;;;;;;1.18;87.07;97856.25;4959558;28;20532;-50
2022/04/01 06:44:29;;;;;;;23.83;13.52;;;;;;;1.25;86.63;97856.22;4958694;28;20034;-50
2022/04/01 06:46:55;;;;;;;25.85;12.95;;;;;;;1.17;85.80;97864.38;4965354;28;20494;-51
2022/04/01 06:49:22;;;;;;;32.88;15.82;;;;;;;1.10;86.21;97858.34;4966063;28;20729;-51
2022/04/01 06:51:47;;;;;;;29.38;16.05;;;;;;;1.19;87.25;97867.63;4966962;28;20050;-50
2022/04/01 06:54:13;;;;;;;20.70;13.27;;;;;;;1.18;85.39;97871.31;4961893;28;20122;-50
2022/04/01 06:56:38;;;;;;;26.08;14.85;;;;;;;1.24;85.17;97880.97;4959086;28;20090;-51
2022/04/01 06:59:05;;;;;;;24.98;14.18;;;;;;;1.16;84.58;97881.25;4965683;28;20026;-51
2022/04/01 07:01:30;;;;;;;26.52;13.63;;;;;;;1.21;85.79;97886.69;4958016;28;20043;-53
2022/04/01 07:03:56;;;;;;;23.38;12.00;;;;;;;1.22;84.57;97888.31;4961647;28;20027;-50
2022/04/01 07:06:22;;;;;;;21.67;10.02;;;;;;;1.22;83.08;97889.13;4963679;28;20034;-50
2022/04/01 07:08:51;;;;;;;23.95;13.68;;;;;;;1.26;83.49;97894.78;4967310;28;20583;-50
2022/04/01 07:11:16;;;;;;;18.90;10.40;;;;;;;1.24;83.82;97888.91;4965692;28;20038;-53
2022/04/01 07:13:42;;;;;;;26.92;13.50;;;;;;;1.33;83.95;97900.81;4955206;28;20039;-53
2022/04/01 07:16:07;;;;;;;28.90;14.30;;;;;;;1.26;84.00;97895.59;4964309;28;20046;-52
2022/04/01 07:18:33;;;;;;;26.45;13.55;;;;;;;1.28;84.32;97895.38;4969950;28;20440;-53
2022/04/01 07:20:59;;;;;;;22.65;12.38;;;;;;;1.26;83.92;97892.13;4966963;28;20062;-50
2022/04/01 07:23:24;;;;;;;29.13;12.75;;;;;;;1.40;83.92;97898.94;4956552;28;20097;-50
2022/04/01 07:25:50;;;;;;;16.83;9.90;;;;;;;1.23;82.34;97890.75;4962382;28;20506;-50
2022/04/01 07:28:15;;;;;;;19.08;11.55;;;;;;;1.25;81.59;97901.91;4957247;28;20053;-51
2022/04/01 07:30:41;;;;;;;19.08;11.48;;;;;;;1.25;81.21;97909.00;4956747;28;20519;-52
2022/04/01 07:33:06;;;;;;;17.80;10.43;;;;;;;1.20;79.87;97912.28;4960210;28;20099;-50
2022/04/01 07:35:34;;;;;;;14.23;8.00;;;;;;;1.16;79.46;97910.28;4962639;28;20053;-53
2022/04/01 07:38:03;;;;;;;26.50;9.75;;;;;;;1.20;79.72;97924.66;4960265;28;20110;-53
2022/04/01 07:40:29;;;;;;;19.70;9.98;;;;;;;1.27;78.70;97906.94;4953781;28;20363;-53
2022/04/01 07:42:54;;;;;;;17.80;10.85;;;;;;;1.18;78.14;97924.88;4958979;28;20039;-50
2022/04/01 07:45:20;;;;;;;15.52;8.32;;;;;;;1.24;78.44;97925.84;4962869;28;20508;-53
2022/04/01 07:47:46;;;;;;;21.65;10.60;;;;;;;1.18;77.65;97932.00;4963392;28;20388;-53
2022/04/01 07:50:13;;;;;;;16.45;8.98;;;;;;;1.26;78.17;97942.28;4966148;28;20525;-53
2022/04/01 07:52:40;;;;;;;16.92;8.43;;;;;;;1.14;76.84;97936.09;4962594;28;20442;-53
2022/04/01 07:55:06;;;;;;;17.40;9.30;;;;;;;1.23;77.50;97926.88;4958000;28;20027;-53
2022/04/01 07:57:31;;;;;;;16.33;8.38;;;;;;;1.14;77.16;97933.44;4963306;28;20081;-50
2022/04/01 07:59:57;;;;;;;18.98;10.70;;;;;;;1.19;78.44;97944.16;4958346;28;20038;-53
2022/04/01 08:02:22;;;;;;;22.20;13.32;;;;;;;1.34;78.94;97949.13;4959207;28;20405;-50
2022/04/01 08:04:48;;;;;;;19.58;11.40;;;;;;;1.30;79.77;97948.78;4967819;28;20141;-51
2022/04/01 08:07:14;;;;;;;22.55;12.50;;;;;;;1.33;80.55;97958.09;4959014;28;20552;-52
2022/04/01 08:09:39;;;;;;;28.90;15.43;;;;;;;1.44;80.68;97955.56;4967290;28;20030;-53
2022/04/01 08:12:05;;;;;;;25.10;13.70;;;;;;;1.42;81.72;97947.06;4958042;28;20059;-52
2022/04/01 08:14:30;;;;;;;24.13;14.30;;;;;;;1.43;81.77;97956.59;4956555;28;20023;-51
2022/04/01 08:16:56;;;;;;;20.70;12.20;;;;;;;1.46;81.78;97958.00;4966544;28;20489;-53
2022/04/01 08:19:22;;;;;;;24.52;11.98;;;;;;;1.43;80.90;97959.22;4968231;28;20484;-53
2022/04/01 08:21:49;;;;;;;23.40;12.60;;;;;;;1.39;83.03;97960.66;4965261;28;20055;-54
2022/04/01 08:24:16;;;;;;;23.17;12.43;;;;;;;1.49;83.71;97966.28;4961361;28;20118;-50
2022/04/01 08:26:41;;;;;;;21.88;12.20;;;;;;;1.37;85.42;97961.91;4961221;28;20047;-53
2022/04/01 08:29:06;;;;;;;30.40;13.35;;;;;;;1.38;87.03;97966.97;4964058;28;20031;-52
2022/04/01 08:31:33;;;;;;;22.15;12.20;;;;;;;1.35;85.97;97977.97;4965198;28;20118;-53
2022/04/01 08:33:59;;;;;;;25.85;13.55;;;;;;;1.34;86.57;97981.63;4962857;28;20042;-54
2022/04/01 08:36:25;;;;;;;27.23;12.18;;;;;;;1.33;86.49;97977.38;4954069;28;20553;-54
2022/04/01 08:38:50;;;;;;;27.48;14.02;;;;;;;1.29;86.75;97984.91;4969540;28;20085;-51
2022/04/01 08:41:17;;;;;;;24.48;12.93;;;;;;;1.21;86.54;97981.72;4959603;28;20042;-51
2022/04/01 08:43:43;;;;;;;28.95;14.43;;;;;;;1.17;86.22;97991.88;4969216;28;20031;-50
2022/04/01 08:46:08;;;;;;;21.70;13.05;;;;;;;1.28;85.99;97995.69;4967440;28;20555;-50
2022/04/01 08:48:34;;;;;;;20.45;10.95;;;;;;;1.16;84.50;98005.31;4962046;28;20458;-52
2022/04/01 08:51:00;;;;;;;28.17;12.98;;;;;;;1.12;86.05;97993.53;4967282;28;20134;-52
2022/04/01 08:53:26;;;;;;;25.33;12.98;;;;;;;1.10;85.86;98006.13;4965184;28;20426;-50
2022/04/01 08:55:54;;;;;;;24.52;14.25;;;;;;;1.34;87.23;98008.03;4968627;28;20588;-53
2022/04/01 08:58:20;;;;;;;24.35;12.88;;;;;;;1.27;85.49;98007.25;4966724;28;20031;-51
2022/04/01 09:00:46;;;;;;;19.33;10.70;;;;;;;1.12;84.49;98004.09;4964334;28;20077;-52
2022/04/01 09:03:12;;;;;;;22.75;12.00;;;;;;;1.25;85.22;98011.97;4968749;28;20038;-50
2022/04/01 09:05:41;;;;;;;23.27;13.70;;;;;;;1.32;84.76;98017.19;4967274;28;20050;-51
2022/04/01 09:08:08;;;;;;;23.63;12.65;;;;;;;1.17;84.41;98006.91;4959450;28;20452;-53
2022/04/01 09:11:01;;;;;;;21.92;12.57;;;;;;;1.33;84.12;98016.19;4963644;28;20058;-52
2022/04/01 09:13:51;;;;;;;22.55;13.45;;;;;;;1.07;85.73;98024.03;4956100;28;20031;-52
2022/04/01 09:16:33;;;;;;;23.35;13.13;;;;;;;1.10;86.28;98022.78;4961421;28;20377;-54
2022/04/01 09:19:03;;;;;;;19.95;12.55;;;;;;;1.19;85.89;98016.22;4960075;28;20213;-55
2022/04/01 09:21:30;;;;;;;24.63;12.80;;;;;;;1.08;86.07;98022.19;4968079;28;20132;-51
2022/04/01 09:23:56;;;;;;;18.30;11.65;;;;;;;1.22;85.42;98026.38;4966784;28;20584;-53
2022/04/01 09:26:28;;;;;;;29.80;18.05;;;;;;;1.28;85.88;98030.00;4966578;28;20047;-53
2022/04/01 09:28:53;;;;;;;23.20;13.55;;;;;;;1.25;85.37;98025.16;4964658;28;20030;-52
2022/04/01 09:31:20;;;;;;;17.25;10.50;;;;;;;1.16;83.52;98031.69;4961081;28;20066;-52
2022/04/01 09:33:47;;;;;;;22.52;11.43;;;;;;;1.14;84.25;98029.25;4958646;28;20067;-51
2022/04/01 09:36:29;;;;;;;23.48;12.30;;;;;;;1.24;83.99;98031.44;4967113;28;20042;-52
2022/04/01 09:39:00;;;;;;;21.10;11.98;;;;;;;1.24;83.93;98031.44;4956296;28;20039;-51
2022/04/01 09:41:33;;;;;;;18.25;10.18;;;;;;;1.33;83.01;98032.81;4960759;28;20532;-53
2022/04/01 09:44:09;;;;;;;21.73;10.57;;;;;;;1.46;82.59;98043.28;4962665;28;20454;-51
2022/04/01 09:46:40;;;;;;;18.38;9.88;;;;;;;1.42;83.01;98041.28;4968001;28;20053;-51
2022/04/01 09:49:06;;;;;;;15.57;8.63;;;;;;;1.45;80.94;98041.69;4963546;28;20426;-51
2022/04/01 09:51:32;;;;;;;19.23;10.93;;;;;;;1.37;82.16;98047.19;4968352;28;20042;-51
2022/04/01 09:54:02;;;;;;;22.25;12.27;;;;;;;1.38;82.10;98040.91;4962721;28;20038;-51
2022/04/01 09:56:44;;;;;;;15.30;9.50;;;;;;;1.35;81.85;98041.34;4957709;28;20043;-53
2022/04/01 09:59:13;;;;;;;19.02;10.32;;;;;;;1.43;82.80;98049.00;4963596;28;20034;-50
2022/04/01 10:01:39;;;;;;;16.08;8.63;;;;;;;1.39;80.35;98049.63;4966557;28;20428;-50
2022/04/01 10:04:05;;;;;;;14.45;8.70;;;;;;;1.28;80.73;98048.47;4962496;28;20042;-51
2022/04/01 10:06:31;;;;;;;19.27;9.65;;;;;;;1.37;80.22;98055.13;4958442;28;20050;-52
2022/04/01 10:08:57;;;;;;;23.90;14.95;;;;;;;1.44;80.74;98055.09;4964677;28;20050;-52
2022/04/01 10:11:23;;;;;;;22.13;10.77;;;;;;;1.54;80.88;98054.63;4937469;28;20466;-49
2022/04/01 10:13:48;;;;;;;19.00;11.27;;;;;;;1.69;82.97;98063.06;4958507;28;20031;-52
2022/04/01 10:16:14;;;;;;;19.77;11.13;;;;;;;1.62;80.33;98062.28;4959506;28;20548;-49
2022/04/01 10:18:40;;;;;;;19.13;9.75;;;;;;;1.55;79.08;98059.72;4953373;28;20042;-49
2022/04/01 10:21:06;;;;;;;16.85;9.52;;;;;;;1.60;80.16;98066.97;4944045;28;20086;-49
2022/04/01 10:23:31;;;;;;;15.93;8.73;;;;;;;1.64;79.31;98065.53;4967660;28;20389;-51
2022/04/01 10:26:02;;;;;;;18.23;10.10;;;;;;;1.67;79.85;98075.66;4944137;28;20046;-53
2022/04/01 10:28:27;;;;;;;;;;;;;;;1.53;78.26;98064.38;4966754;28;20402;-52
2022/04/01 10:30:57;;;;;;;14.32;8.13;;;;;;;1.57;78.92;98070.03;4960554;28;19926;-51
2022/04/01 10:33:33;;;;;;;13.80;8.10;;;;;;;1.75;79.28;98067.50;4963317;28;20122;-50
2022/04/01 10:35:59;;;;;;;14.50;8.48;;;;;;;1.68;79.33;98072.81;4956482;28;20066;-51
2022/04/01 10:38:27;;;;;;;23.90;10.20;;;;;;;1.60;79.47;98069.59;4960755;28;20052;-50
2022/04/01 10:40:58;;;;;;;16.55;8.40;;;;;;;1.56;78.79;98065.78;4957025;28;20314;-51
2022/04/01 10:43:28;;;;;;;19.15;9.23;;;;;;;1.63;79.66;98069.22;4964241;28;20460;-50
2022/04/01 10:46:03;;;;;;;23.38;11.57;;;;;;;1.75;79.18;98074.59;4954386;28;20486;-51
2022/04/01 10:51:37;;;;;;;13.02;7.68;;;;;;;1.53;77.01;98085.50;4962023;28;20400;-49
2022/04/01 10:54:12;;;;;;;14.03;7.50;;;;;;;1.42;77.63;98083.53;4960269;28;20038;-52
2022/04/01 10:56:50;;;;;;;20.95;9.88;;;;;;;1.31;77.23;98074.44;4955841;28;20102;-53
2022/04/01 10:59:17;;;;;;;24.40;10.63;;;;;;;1.42;78.26;98081.72;4958180;28;20027;-49
2022/04/01 11:01:51;;;;;;;16.30;9.45;;;;;;;1.61;79.36;98079.16;4964218;28;20077;-53
2022/04/01 11:04:16;;;;;;;19.15;9.07;;;;;;;1.60;79.20;98086.28;4966624;28;20121;-53
2022/04/01 11:07:17;;;;;;;15.18;8.15;;;;;;;1.69;77.85;98089.47;4962240;28;20561;-51
2022/04/01 11:10:04;;;;;;;13.35;7.25;;;;;;;1.53;77.42;98100.56;4970734;28;20469;-50
2022/04/01 11:12:31;;;;;;;14.68;7.68;;;;;;;1.54;77.08;98094.25;4962935;28;20146;-51
2022/04/01 11:15:00;;;;;;;15.70;7.95;;;;;;;1.73;76.93;98106.53;4954495;28;20850;-52
2022/04/01 11:17:28;;;;;;;16.90;7.38;;;;;;;1.53;76.74;98100.56;4963885;28;20070;-52
2022/04/01 11:20:13;;;;;;;14.93;8.52;;;;;;;1.62;77.42;98093.97;4965760;28;20049;-51
2022/04/01 11:23:00;;;;;;;20.17;8.23;;;;;;;1.69;77.03;98100.84;4975872;28;20047;-50
2022/04/01 11:25:27;;;;;;;19.88;7.53;;;;;;;1.67;76.05;98110.00;4964703;28;20054;-51
2022/04/01 11:28:14;;;;;;;13.35;7.82;;;;;;;1.53;75.92;98111.13;4965124;28;20046;-53
2022/04/01 11:30:40;;;;;;;13.20;7.45;;;;;;;1.64;75.61;98110.44;4966520;28;20049;-49
2022/04/01 11:33:09;;;;;;;12.35;7.88;;;;;;;1.50;75.76;98113.16;4967484;28;20042;-50
2022/04/01 11:35:36;;;;;;;17.85;7.00;;;;;;;1.50;75.85;98113.16;4968868;28;20051;-52
2022/04/01 11:38:02;;;;;;;17.17;8.13;;;;;;;1.60;76.28;98125.06;4966062;28;20039;-54
2022/04/01 11:40:36;;;;;;;17.77;9.70;;;;;;;1.34;75.36;98116.25;4961505;28;20042;-51